Terminal Aerodrome Forecast
Issued by NWS

Home | Current Version | Previous Version | Text Only | Print | Product List | Glossary On
Versions: 1 2 3 4 5 6 7 8 9 10 11 12 13 14 15 16 17
000
FTUS44 KTSA 240500
TAFFYV
TAF
KFYV 240520Z 2406/2506 VRB03KT P6SM FEW250
      TEMPO 2410/2414 3SM BR SCT007
     FM241500 09006KT P6SM SCT050
     FM250000 13003KT P6SM SKC=

USA.gov is the U.S. government's official web portal to all federal, state and local government web resources and services.